Time;durP1;ratioP1;P1;durP2;ratioP2;P2;SDS_P1;SDS_P2;PMS_P1;PMS_P2;Temp;Humidity;BMP_temperature;BMP_pressure;BME280_temperature;BME280_humidity;BME280_pressure;Samples;Min_cycle;Max_cycle;Signal;HPM_P1;HPM_P2
2021/01/05 00:02:14;;;;;;;23.73;14.40;;;1.80;99.90;;;2.48;88.89;100656.81;5035099;28;20048;-79
2021/01/05 00:04:40;;;;;;;27.45;16.33;;;1.80;99.90;;;2.38;89.02;100649.56;5016265;28;20149;-80
2021/01/05 00:07:07;;;;;;;29.50;15.00;;;1.80;99.90;;;2.45;89.23;100650.00;5033925;28;20062;-81
2021/01/05 00:09:33;;;;;;;25.65;14.18;;;1.80;99.90;;;2.56;88.66;100653.38;5051398;28;20591;-84
2021/01/05 00:12:08;;;;;;;22.52;14.60;;;1.80;99.90;;;2.57;88.71;100655.81;5060793;28;20130;-83
2021/01/05 00:14:38;;;;;;;27.48;15.15;;;1.80;99.90;;;2.50;88.89;100655.44;5068903;28;20033;-81
2021/01/05 00:17:06;;;;;;;23.73;14.80;;;1.90;99.90;;;2.51;88.84;100656.22;5053975;28;20089;-81
2021/01/05 00:19:32;;;;;;;28.20;14.52;;;1.90;99.90;;;2.46;88.29;100650.81;5068154;28;20071;-81
2021/01/05 00:21:58;;;;;;;24.40;14.32;;;1.90;99.90;;;2.46;88.64;100645.31;5032607;28;20041;-80
2021/01/05 00:24:23;;;;;;;22.15;13.52;;;1.90;99.90;;;2.54;88.88;100650.09;5034691;28;20430;-81
2021/01/05 00:26:50;;;;;;;27.65;15.80;;;1.80;99.90;;;2.55;88.66;100658.06;5052519;28;20508;-79
2021/01/05 00:29:19;;;;;;;25.45;14.82;;;1.90;99.90;;;2.58;88.56;100649.19;5052408;28;20407;-81
2021/01/05 00:31:45;;;;;;;22.23;13.43;;;1.80;99.90;;;2.59;88.40;100659.09;5036022;28;20087;-80
2021/01/05 00:34:11;;;;;;;25.08;14.10;;;1.90;99.90;;;2.64;88.34;100652.66;5058171;28;20132;-82
2021/01/05 00:36:38;;;;;;;25.17;14.05;;;1.90;99.90;;;2.61;88.24;100654.09;5072013;28;20037;-82
2021/01/05 00:39:06;;;;;;;24.77;13.77;;;1.90;99.90;;;2.57;88.37;100647.53;5073018;28;20092;-79
2021/01/05 00:41:34;;;;;;;25.67;13.77;;;1.90;99.90;;;2.63;88.13;100651.84;5057951;28;20025;-83
2021/01/05 00:44:00;;;;;;;24.90;14.23;;;1.90;99.90;;;2.63;87.81;100648.28;5058264;28;20045;-79
2021/01/05 00:46:27;;;;;;;20.90;14.13;;;1.90;99.90;;;2.58;88.29;100640.91;5044602;28;20496;-81
2021/01/05 00:48:53;;;;;;;24.83;14.32;;;1.90;99.90;;;2.61;88.24;100651.34;5038810;28;20030;-81
2021/01/05 00:51:19;;;;;;;25.40;13.70;;;1.90;99.90;;;2.60;88.07;100646.94;5053654;28;20055;-81
2021/01/05 00:53:45;;;;;;;24.08;13.98;;;1.90;99.90;;;2.57;88.08;100660.50;5047406;28;20015;-82
2021/01/05 00:56:10;;;;;;;24.15;13.77;;;1.90;99.90;;;2.51;87.56;100651.53;5055800;28;20015;-79
2021/01/05 00:58:37;;;;;;;24.45;13.60;;;1.90;99.90;;;2.50;88.36;100652.66;5073218;28;20077;-81
2021/01/05 01:01:03;;;;;;;21.90;13.13;;;1.80;99.90;;;2.57;87.70;100653.06;5056360;28;20064;-80
2021/01/05 01:03:29;;;;;;;27.00;14.68;;;1.90;99.90;;;2.49;87.88;100652.97;5056443;28;20033;-78
2021/01/05 01:05:56;;;;;;;25.70;14.15;;;1.80;99.90;;;2.40;88.15;100655.63;5074372;28;20040;-79
2021/01/05 01:08:22;;;;;;;27.13;14.48;;;1.80;99.90;;;2.38;88.61;100649.56;5058616;28;20105;-79
2021/01/05 01:10:49;;;;;;;23.77;14.00;;;1.80;99.90;;;2.46;87.84;100659.09;5045646;28;20448;-80
2021/01/05 01:13:16;;;;;;;25.08;13.38;;;1.80;99.90;;;2.41;88.19;100648.16;5052340;28;20064;-82
2021/01/05 01:15:43;;;;;;;25.35;13.50;;;1.80;99.90;;;2.51;87.74;100651.53;5052828;28;20043;-81
2021/01/05 01:18:09;;;;;;;24.77;14.25;;;1.80;99.90;;;2.50;87.80;100649.91;5036314;28;20052;-80
2021/01/05 01:20:36;;;;;;;27.73;14.60;;;1.80;99.90;;;2.47;88.18;100656.00;5036144;28;20064;-79
2021/01/05 01:23:02;;;;;;;24.77;14.80;;;1.80;99.90;;;2.44;88.03;100647.56;5051689;28;20088;-81
2021/01/05 01:25:28;;;;;;;25.13;14.27;;;1.80;99.90;;;2.52;87.85;100652.34;5052112;28;20177;-81
2021/01/05 01:27:54;;;;;;;23.60;13.15;;;1.80;99.90;;;2.51;87.77;100657.03;5036079;28;20080;-81
2021/01/05 01:30:21;;;;;;;24.75;13.60;;;1.80;99.90;;;2.43;87.83;100648.66;5035243;28;20068;-80
2021/01/05 01:32:47;;;;;;;23.25;13.18;;;1.80;99.90;;;2.39;88.17;100648.44;5035978;28;20474;-79
2021/01/05 01:35:15;;;;;;;23.33;14.13;;;1.80;99.90;;;2.37;88.21;100656.22;5051539;28;20057;-79
2021/01/05 01:37:42;;;;;;;28.70;14.73;;;1.80;99.90;;;2.39;87.99;100659.47;5036656;28;20112;-82
2021/01/05 01:40:11;;;;;;;25.40;13.98;;;1.80;99.90;;;2.33;88.59;100652.44;5052986;28;20029;-80
2021/01/05 01:42:37;;;;;;;23.65;13.80;;;1.80;99.90;;;2.40;87.79;100655.63;5052239;28;20037;-79
2021/01/05 01:45:07;;;;;;;26.35;14.20;;;1.80;99.90;;;2.48;87.97;100656.81;5035390;28;20037;-78
2021/01/05 01:47:42;;;;;;;24.42;14.18;;;1.80;99.90;;;2.48;87.73;100663.16;5035536;28;20025;-80
2021/01/05 01:50:23;;;;;;;22.05;13.63;;;1.80;99.90;;;2.51;87.52;100662.56;5035357;28;20472;-82
2021/01/05 01:53:33;;;;;;;27.92;14.68;;;1.80;99.90;;;2.37;88.32;100663.66;5034726;28;20056;-80
2021/01/05 01:57:03;;;;;;;26.38;14.25;;;1.80;99.90;;;2.44;88.01;100656.63;5034315;28;20385;-81
2021/01/05 01:59:52;;;;;;;26.63;13.95;;;1.90;99.90;;;2.44;88.02;100653.84;5050972;28;20396;-80
2021/01/05 02:03:20;;;;;;;26.23;14.18;;;1.90;99.90;;;2.42;88.11;100658.06;5035243;28;20033;-80
2021/01/05 02:06:05;;;;;;;25.92;14.82;;;1.80;99.90;;;2.45;88.27;100657.44;4996879;28;20038;-79
2021/01/05 02:09:39;;;;;;;26.07;15.27;;;1.80;99.90;;;2.46;88.06;100657.16;5031355;28;20068;-80
2021/01/05 02:12:33;;;;;;;25.73;14.82;;;1.80;99.90;;;2.34;88.42;100654.06;4972607;28;20582;-81
2021/01/05 02:15:34;;;;;;;27.70;15.35;;;1.80;99.90;;;2.40;88.34;100657.53;5033707;28;20045;-82
2021/01/05 02:18:20;;;;;;;28.33;14.65;;;1.80;99.90;;;2.49;87.97;100653.78;5035892;28;20093;-79
2021/01/05 02:21:06;;;;;;;31.17;15.82;;;1.80;99.90;;;2.42;88.19;100649.78;5051238;28;20029;-80
2021/01/05 02:24:08;;;;;;;28.52;15.00;;;1.80;99.90;;;2.33;88.58;100654.34;5051142;28;20034;-80
2021/01/05 02:27:07;;;;;;;28.30;15.48;;;1.80;99.90;;;2.33;88.51;100657.13;5051049;28;20523;-80
2021/01/05 02:30:02;;;;;;;30.45;15.98;;;1.80;99.90;;;2.43;88.08;100651.44;5050459;28;20026;-80
2021/01/05 02:33:12;;;;;;;31.35;16.73;;;1.80;99.90;;;2.36;88.36;100654.56;5050735;28;20072;-82
2021/01/05 02:36:17;;;;;;;28.23;15.68;;;1.80;99.90;;;2.39;89.13;100650.38;5051070;28;20107;-80
2021/01/05 02:39:32;;;;;;;25.70;14.48;;;1.80;99.90;;;2.54;87.96;100664.69;5050528;28;20044;-80
2021/01/05 02:42:40;;;;;;;26.10;14.85;;;1.80;99.90;;;2.56;87.42;100656.97;5050799;28;20041;-83
2021/01/05 02:45:27;;;;;;;;;;;1.90;99.90;;;2.42;88.13;100652.53;5035651;28;20393;-82
2021/01/05 02:48:25;;;;;;;;;;;1.80;99.90;;;2.49;88.02;100651.03;5049857;28;19940;-79
2021/01/05 02:51:29;;;;;;;29.50;14.73;;;1.90;99.90;;;2.43;88.28;100652.25;5050508;28;20356;-79
2021/01/05 02:55:06;;;;;;;27.33;15.52;;;1.80;99.90;;;2.45;88.82;100643.66;5050390;28;20029;-81
2021/01/05 02:58:08;;;;;;;31.40;15.98;;;1.80;99.90;;;2.46;88.57;100648.06;5050854;28;20061;-80
2021/01/05 03:01:28;;;;;;;30.00;16.30;;;1.80;99.90;;;2.47;88.47;100646.94;5051151;28;20481;-81
2021/01/05 03:03:54;;;;;;;30.48;15.70;;;1.80;99.90;;;2.49;88.24;100644.69;5051566;28;20052;-83
2021/01/05 03:06:30;;;;;;;30.20;15.38;;;1.80;99.90;;;2.54;87.71;100648.16;5034886;28;20025;-81
2021/01/05 03:09:54;;;;;;;26.33;14.77;;;1.90;99.90;;;2.47;87.50;100644.97;5034787;28;20026;-82
2021/01/05 03:12:54;;;;;;;25.27;13.98;;;1.90;99.90;;;2.52;87.83;100646.84;5035895;28;20079;-83
2021/01/05 03:15:38;;;;;;;30.40;15.43;;;1.90;99.90;;;2.45;88.26;100633.44;5068559;28;20093;-81
2021/01/05 03:18:29;;;;;;;31.40;16.80;;;1.90;99.90;;;2.38;88.69;100638.53;5035529;28;20064;-82
2021/01/05 03:21:27;;;;;;;27.92;14.38;;;1.90;99.90;;;2.51;88.20;100643.25;5033646;28;20065;-80
2021/01/05 03:23:59;;;;;;;30.48;16.60;;;1.80;99.90;;;2.42;88.50;100642.34;5050282;28;20033;-82
2021/01/05 03:26:46;;;;;;;31.00;16.98;;;1.80;99.90;;;2.31;88.89;100640.06;5050445;28;20044;-80
2021/01/05 03:29:17;;;;;;;30.73;16.92;;;1.80;99.90;;;2.37;88.57;100634.16;5034411;28;20032;-82
2021/01/05 03:31:56;;;;;;;32.28;18.27;;;1.90;99.90;;;2.41;88.48;100637.13;5051332;28;20048;-80
2021/01/05 03:34:22;;;;;;;26.13;14.15;;;1.80;99.90;;;2.51;88.42;100643.25;5033776;28;20033;-82
2021/01/05 03:36:50;;;;;;;28.83;15.35;;;1.80;99.90;;;2.53;88.39;100643.78;5036125;28;20029;-82
2021/01/05 03:39:15;;;;;;;35.90;17.80;;;1.80;99.90;;;2.42;88.64;100636.81;5051378;28;20076;-83
2021/01/05 03:41:41;;;;;;;35.10;16.92;;;1.80;99.90;;;2.48;88.52;100635.59;5050802;28;20029;-80
2021/01/05 03:44:09;;;;;;;35.22;16.60;;;1.90;99.90;;;2.51;88.68;100639.69;5051030;28;20030;-80
2021/01/05 03:46:36;;;;;;;31.40;16.80;;;1.80;99.90;;;2.46;88.77;100640.59;5033615;28;20032;-80
2021/01/05 03:49:03;;;;;;;33.08;16.52;;;1.80;99.90;;;2.47;88.70;100652.47;5049642;28;20029;-81
2021/01/05 03:51:30;;;;;;;30.88;16.77;;;1.80;99.90;;;2.41;88.86;100640.69;5050936;28;20037;-82
2021/01/05 03:53:58;;;;;;;31.40;15.93;;;1.80;99.90;;;2.37;89.08;100649.88;5050841;28;20033;-80
2021/01/05 03:56:23;;;;;;;31.33;16.23;;;1.80;99.90;;;2.42;89.03;100642.34;5033133;28;20075;-82
2021/01/05 03:58:49;;;;;;;31.80;15.43;;;1.80;99.90;;;2.40;89.05;100649.28;5035058;28;20033;-80
2021/01/05 04:01:15;;;;;;;30.63;16.17;;;1.80;99.90;;;2.35;88.71;100647.41;5037698;28;20040;-79
2021/01/05 04:03:42;;;;;;;33.38;15.63;;;1.80;99.90;;;2.38;88.88;100654.25;5053697;28;20060;-80
2021/01/05 04:06:10;;;;;;;30.63;14.82;;;1.80;99.90;;;2.42;89.01;100652.53;5038769;28;20087;-80
2021/01/05 04:08:36;;;;;;;30.55;14.60;;;1.80;99.90;;;2.49;88.36;100652.97;5054225;28;20033;-81
2021/01/05 04:11:04;;;;;;;29.20;15.13;;;1.90;99.90;;;2.47;88.39;100650.50;5054335;28;20117;-78
2021/01/05 04:13:30;;;;;;;31.55;15.73;;;1.90;99.90;;;2.46;88.54;100650.81;5054525;28;20037;-83
2021/01/05 04:15:56;;;;;;;29.08;15.15;;;1.80;99.90;;;2.46;88.38;100653.56;5054188;28;20049;-81
2021/01/05 04:18:22;;;;;;;30.15;15.40;;;1.80;99.90;;;2.31;89.21;100646.38;5037695;28;20025;-81
2021/01/05 04:20:49;;;;;;;30.25;16.00;;;1.90;99.90;;;2.53;88.54;100645.72;5054177;28;20124;-82
2021/01/05 04:23:17;;;;;;;31.35;16.15;;;1.90;99.90;;;2.40;89.34;100641.84;5035846;28;20374;-81
2021/01/05 04:25:43;;;;;;;34.72;15.55;;;1.90;99.90;;;2.33;89.80;100641.41;5035095;28;20467;-82
2021/01/05 04:28:08;;;;;;;34.58;15.75;;;1.90;99.90;;;2.47;89.12;100644.19;5036051;28;20033;-81
2021/01/05 04:30:37;;;;;;;28.08;14.48;;;1.80;99.90;;;2.49;88.34;100644.69;5052345;28;20052;-82
2021/01/05 04:33:12;;;;;;;31.60;15.55;;;1.90;99.90;;;2.41;88.74;100637.13;5036033;28;20048;-81
2021/01/05 04:35:40;;;;;;;33.72;15.27;;;1.90;99.90;;;2.50;88.67;100641.66;5037406;28;20024;-80
2021/01/05 04:38:07;;;;;;;31.88;15.73;;;1.80;99.90;;;2.56;88.36;100643.19;5036234;28;20030;-80
2021/01/05 04:40:42;;;;;;;29.80;14.73;;;1.90;99.90;;;2.53;88.52;100643.78;5052793;28;20029;-80
2021/01/05 04:43:21;;;;;;;33.65;16.92;;;1.90;99.90;;;2.52;88.63;100639.38;5052372;28;20481;-82
2021/01/05 04:46:45;;;;;;;29.13;14.93;;;1.90;99.90;;;2.48;88.76;100646.63;5037635;28;20048;-82
2021/01/05 04:50:01;;;;;;;30.27;15.35;;;1.90;99.90;;;2.56;88.97;100650.63;5035797;28;20025;-81
2021/01/05 04:52:43;;;;;;;28.52;14.05;;;1.90;99.90;;;2.52;87.90;100652.34;5053037;28;20032;-82
2021/01/05 04:56:17;;;;;;;31.40;15.15;;;1.90;99.90;;;2.51;88.46;100653.47;5036632;28;20096;-81
2021/01/05 04:59:02;;;;;;;29.42;14.43;;;1.90;99.90;;;2.52;88.53;100647.66;5029411;28;20142;-82
2021/01/05 05:01:43;;;;;;;32.17;16.50;;;1.90;99.90;;;2.53;87.95;100646.53;5047923;28;20029;-83
2021/01/05 05:04:52;;;;;;;33.42;16.58;;;1.90;99.90;;;2.60;88.58;100651.66;5042761;28;20045;-82
2021/01/05 05:08:32;;;;;;;30.02;15.55;;;1.90;99.90;;;2.66;87.99;100650.44;5041630;28;20156;-82
2021/01/05 05:11:23;;;;;;;27.90;14.95;;;1.90;99.90;;;2.57;88.24;100657.75;5041671;28;20454;-82
2021/01/05 05:14:15;;;;;;;33.35;16.05;;;2.00;99.90;;;2.49;88.12;100662.06;5041259;28;20481;-83
2021/01/05 05:17:15;;;;;;;31.45;15.20;;;1.90;99.90;;;2.57;88.22;100658.56;5058035;28;20116;-84
2021/01/05 05:20:28;;;;;;;28.25;14.70;;;2.00;99.90;;;2.61;88.01;100654.09;5059999;28;20072;-82
2021/01/05 05:23:29;;;;;;;30.35;15.10;;;2.00;99.90;;;2.52;88.40;100655.09;5030777;28;20125;-81
2021/01/05 05:26:14;;;;;;;28.98;14.27;;;2.00;99.90;;;2.55;88.50;100660.84;5058415;28;20025;-81
2021/01/05 05:29:24;;;;;;;31.67;15.13;;;2.00;99.90;;;2.54;88.68;100663.88;5060906;28;20060;-81
2021/01/05 05:32:04;;;;;;;29.13;16.17;;;2.00;99.90;;;2.56;88.85;100665.22;5050165;28;20040;-79
2021/01/05 05:35:05;;;;;;;32.40;15.57;;;1.90;99.90;;;2.56;88.53;100651.44;5048560;28;20025;-83
2021/01/05 05:38:15;;;;;;;32.03;15.75;;;2.00;99.90;;;2.59;88.86;100669.31;5064833;28;20088;-79
2021/01/05 05:41:44;;;;;;;29.48;15.13;;;2.00;99.90;;;2.50;88.71;100671.97;5043073;28;20033;-83
2021/01/05 05:44:52;;;;;;;29.50;15.77;;;2.00;99.90;;;2.49;88.44;100659.28;5058997;28;20401;-81
2021/01/05 05:48:06;;;;;;;32.83;15.63;;;2.00;99.90;;;2.47;88.87;100660.72;5044044;28;20033;-79
2021/01/05 05:51:17;;;;;;;35.05;17.65;;;2.00;99.90;;;2.55;88.76;100669.09;5033636;28;20477;-81
2021/01/05 05:54:22;;;;;;;37.45;16.83;;;2.00;99.90;;;2.58;88.70;100664.91;5045371;28;20092;-83
2021/01/05 05:57:35;;;;;;;34.83;16.35;;;2.00;99.90;;;2.54;88.93;100664.69;5045346;28;20102;-84
2021/01/05 06:00:13;;;;;;;35.05;16.75;;;2.00;99.90;;;2.63;88.94;100675.88;5039783;22;20042;-88
2021/01/05 06:02:39;;;;;;;39.30;17.83;;;2.00;99.90;;;2.60;89.09;100671.75;5015845;28;20030;-86
2021/01/05 06:05:35;;;;;;;35.00;17.27;;;2.00;99.90;;;2.66;88.55;100678.81;5016615;28;20496;-88
2021/01/05 06:08:08;;;;;;;32.75;16.98;;;2.00;99.90;;;2.66;88.61;100672.50;5014478;28;20040;-87
2021/01/05 06:10:35;;;;;;;32.40;17.08;;;2.00;99.90;;;2.62;88.56;100674.22;4998875;28;20133;-84
2021/01/05 06:13:02;;;;;;;35.50;18.70;;;2.00;99.90;;;2.57;88.99;100677.88;4996369;28;20387;-86
2021/01/05 06:15:31;;;;;;;33.35;16.52;;;2.00;99.90;;;2.62;88.89;100675.03;4996458;28;20077;-87
2021/01/05 06:17:57;;;;;;;35.08;16.92;;;2.00;99.90;;;2.65;88.48;100673.59;4996598;28;20084;-88
2021/01/05 06:20:25;;;;;;;35.38;16.50;;;2.00;99.90;;;2.62;88.98;100679.72;4996020;28;20034;-86
2021/01/05 06:22:55;;;;;;;32.10;16.10;;;2.00;99.90;;;2.67;88.64;100677.69;4996079;28;20394;-86
2021/01/05 06:25:24;;;;;;;33.67;17.17;;;2.00;99.90;;;2.70;89.05;100683.75;4996646;28;20041;-86
2021/01/05 06:27:51;;;;;;;40.83;16.90;;;2.00;99.90;;;2.65;88.47;100682.72;4995523;28;20374;-86
2021/01/05 06:30:18;;;;;;;40.40;18.67;;;2.00;99.90;;;2.61;88.98;100680.84;5012504;28;20029;-86
2021/01/05 06:32:45;;;;;;;34.22;17.08;;;2.00;99.90;;;2.55;88.95;100691.16;4995679;28;20030;-87
2021/01/05 06:35:15;;;;;;;38.70;18.85;;;2.10;99.90;;;2.61;89.12;100689.94;4996748;28;20422;-87
2021/01/05 06:37:41;;;;;;;34.53;17.63;;;2.00;99.90;;;2.66;88.71;100694.56;5013020;28;20033;-89
2021/01/05 06:40:10;;;;;;;38.17;16.90;;;2.00;99.90;;;2.57;88.90;100682.56;4995865;28;20037;-87
2021/01/05 06:42:37;;;;;;;36.33;17.52;;;2.00;99.90;;;2.47;89.47;100689.09;4996888;28;20030;-87
2021/01/05 06:45:16;;;;;;;36.05;16.45;;;2.00;99.90;;;2.65;88.56;100695.66;5000204;28;20027;-87
2021/01/05 06:47:42;;;;;;;37.00;17.23;;;2.00;99.90;;;2.69;88.09;100693.13;4998516;28;20034;-88
2021/01/05 06:50:09;;;;;;;35.03;16.42;;;2.00;99.90;;;2.70;88.63;100697.53;5007479;28;20026;-86
2021/01/05 06:52:35;;;;;;;36.22;16.65;;;2.00;99.90;;;2.63;88.16;100692.41;5002013;28;20027;-84
2021/01/05 06:55:03;;;;;;;33.95;16.67;;;2.00;99.90;;;2.63;88.27;100695.97;4995087;28;20026;-88
2021/01/05 06:57:28;;;;;;;41.85;19.23;;;2.00;99.90;;;2.61;88.68;100698.22;4995330;28;20166;-86
2021/01/05 06:59:54;;;;;;;36.67;17.33;;;2.00;99.90;;;2.58;88.42;100693.31;4996340;28;20093;-87
2021/01/05 07:02:20;;;;;;;36.67;17.55;;;2.10;99.90;;;2.67;88.17;100682.38;4995860;28;20482;-88
2021/01/05 07:04:46;;;;;;;32.67;15.90;;;2.10;99.90;;;2.70;87.97;100689.25;4995811;28;20441;-85
2021/01/05 07:07:13;;;;;;;37.58;17.50;;;2.00;99.90;;;2.63;88.88;100684.13;4995347;28;20027;-85
2021/01/05 07:09:41;;;;;;;36.67;16.60;;;2.00;99.90;;;2.56;88.66;100686.47;5011883;28;20026;-86
2021/01/05 07:12:07;;;;;;;35.42;16.65;;;2.00;99.90;;;2.67;88.19;100687.91;4995780;28;20054;-87
2021/01/05 07:14:32;;;;;;;31.92;17.42;;;2.00;99.90;;;2.64;88.47;100694.84;4996197;28;20509;-85
2021/01/05 07:17:01;;;;;;;36.10;18.33;;;2.00;99.90;;;2.67;88.70;100687.91;4997511;28;20065;-87
2021/01/05 07:19:27;;;;;;;41.20;17.00;;;2.00;99.90;;;2.67;88.72;100708.03;4996875;28;20142;-86
2021/01/05 07:21:53;;;;;;;38.58;18.25;;;2.10;99.90;;;2.65;89.08;100706.69;4996120;28;20058;-86
2021/01/05 07:24:23;;;;;;;41.75;18.85;;;2.00;99.90;;;2.72;88.85;100706.31;4995914;28;20030;-85
2021/01/05 07:26:51;;;;;;;39.97;18.27;;;2.00;99.90;;;2.76;88.59;100699.06;4996596;28;20026;-88
2021/01/05 07:29:21;;;;;;;40.00;17.42;;;2.00;99.90;;;2.69;88.49;100716.00;4998126;28;20034;-86
2021/01/05 07:31:50;;;;;;;41.97;19.27;;;2.00;99.90;;;2.65;88.75;100706.69;4997282;28;20113;-87
2021/01/05 07:34:17;;;;;;;36.03;17.58;;;2.10;99.90;;;2.71;88.79;100716.50;5000885;28;20044;-85
2021/01/05 07:36:54;;;;;;;39.55;18.75;;;2.10;99.90;;;2.69;88.91;100707.75;5002814;28;20034;-87
2021/01/05 07:39:30;;;;;;;38.13;17.85;;;2.10;99.90;;;2.67;88.85;100727.31;5002386;28;20090;-88
2021/01/05 07:42:30;;;;;;;38.17;17.92;;;2.10;99.90;;;2.70;88.40;100708.56;5001745;28;20072;-85
2021/01/05 07:45:01;;;;;;;36.10;17.30;;;2.10;99.90;;;2.68;88.99;100711.59;5002693;28;20065;-87
2021/01/05 07:47:37;;;;;;;38.08;18.42;;;2.10;99.90;;;2.70;88.90;100716.84;5001861;28;20031;-87
2021/01/05 07:50:16;;;;;;;38.88;16.95;;;2.10;99.90;;;2.55;89.04;100718.72;5010620;28;20026;-83
2021/01/05 07:52:42;;;;;;;39.40;17.95;;;2.10;99.90;;;2.48;89.46;100714.72;5011581;28;20077;-85
2021/01/05 07:55:23;;;;;;;39.45;17.75;;;2.10;99.90;;;2.56;89.66;100714.03;5016840;28;20131;-85
2021/01/05 07:57:52;;;;;;;42.60;18.55;;;2.10;99.90;;;2.70;88.77;100711.31;5016617;28;20030;-85
2021/01/05 08:00:26;;;;;;;45.50;18.27;;;2.10;99.90;;;2.62;89.35;100710.06;5014865;28;20061;-86
2021/01/05 08:02:54;;;;;;;38.95;18.33;;;2.10;99.90;;;2.71;88.71;100699.13;5007843;28;20041;-87
2021/01/05 08:05:26;;;;;;;39.35;17.70;;;2.10;99.90;;;2.77;88.36;100709.78;5004167;28;20206;-86
2021/01/05 08:07:52;;;;;;;40.97;18.00;;;2.10;99.90;;;2.73;88.67;100702.44;5001237;28;20514;-84
2021/01/05 08:10:33;;;;;;;40.83;19.48;;;2.10;99.90;;;2.61;89.05;100706.50;4997644;28;20065;-85
2021/01/05 08:13:03;;;;;;;38.35;18.13;;;2.10;99.90;;;2.76;88.80;100713.66;4997799;28;20048;-86
2021/01/05 08:15:29;;;;;;;44.95;18.58;;;2.10;99.90;;;2.68;88.78;100708.84;4997131;28;20092;-84
2021/01/05 08:17:56;;;;;;;40.92;18.40;;;2.10;99.90;;;2.67;88.62;100709.97;4997123;28;20106;-87
2021/01/05 08:20:30;;;;;;;40.30;18.05;;;2.10;99.90;;;2.81;87.87;100715.50;4997096;28;20497;-85
2021/01/05 08:22:57;;;;;;;40.63;17.30;;;2.10;99.90;;;2.84;88.06;100718.47;4998906;28;20241;-83
2021/01/05 08:25:24;;;;;;;38.55;18.27;;;2.20;99.90;;;2.72;88.37;100709.88;4997814;28;20125;-84
2021/01/05 08:27:55;;;;;;;37.10;16.83;;;2.20;99.90;;;2.79;88.47;100717.75;4998268;28;20037;-84
2021/01/05 08:30:34;;;;;;;40.55;19.33;;;2.20;99.90;;;2.86;87.57;100720.94;4999829;28;20034;-84
2021/01/05 08:33:09;;;;;;;33.58;17.15;;;2.20;99.90;;;2.78;87.95;100722.44;5001240;28;20034;-86
2021/01/05 08:35:36;;;;;;;28.33;13.57;;;2.20;99.90;;;2.76;88.55;100726.66;4999687;28;20026;-84
2021/01/05 08:38:04;;;;;;;38.78;18.05;;;2.20;99.90;;;2.87;88.65;100733.59;5001840;28;20046;-85
2021/01/05 08:40:34;;;;;;;40.65;20.63;;;2.20;99.90;;;2.90;88.01;100725.53;5000086;28;20030;-86
2021/01/05 08:43:06;;;;;;;39.97;18.70;;;2.20;99.90;;;2.97;88.28;100728.69;5000643;28;20116;-84
2021/01/05 08:45:33;;;;;;;41.80;20.35;;;2.20;99.90;;;2.89;88.22;100737.66;5000797;28;20048;-86
2021/01/05 08:48:00;;;;;;;46.60;21.13;;;2.20;99.90;;;2.87;88.97;100737.16;5005349;28;20038;-85
2021/01/05 08:50:31;;;;;;;42.53;18.85;;;2.30;99.90;;;2.91;88.15;100740.97;5005364;28;20030;-85
2021/01/05 08:53:10;;;;;;;35.70;17.65;;;2.30;99.90;;;2.97;87.29;100736.16;5004687;28;20026;-84
2021/01/05 08:55:41;;;;;;;39.88;18.80;;;2.30;99.90;;;3.04;87.61;100731.06;5000251;28;20030;-85
2021/01/05 08:58:08;;;;;;;36.88;17.85;;;2.40;99.90;;;3.04;87.32;100740.16;5000990;28;20027;-87
2021/01/05 09:00:35;;;;;;;39.75;18.58;;;2.40;99.90;;;3.02;87.14;100736.03;5000374;28;20065;-84
2021/01/05 09:03:02;;;;;;;45.20;18.83;;;2.40;99.90;;;3.01;87.83;100732.50;5000666;28;20142;-85
2021/01/05 09:05:27;;;;;;;37.20;18.77;;;2.40;99.90;;;3.09;87.20;100733.69;5000208;28;20026;-89
2021/01/05 09:07:53;;;;;;;44.80;20.85;;;2.40;99.90;;;3.11;86.96;100731.47;5000078;28;20482;-89
2021/01/05 09:10:26;;;;;;;38.15;18.92;;;2.40;99.90;;;3.16;87.37;100729.41;5001797;28;20023;-85
2021/01/05 09:12:54;;;;;;;42.88;19.95;;;2.40;99.90;;;3.18;87.28;100738.19;5003296;28;20031;-84
2021/01/05 09:15:22;;;;;;;38.20;18.23;;;2.40;99.90;;;3.25;87.04;100737.78;5004082;28;20121;-83
2021/01/05 09:17:51;;;;;;;39.45;18.88;;;2.40;99.90;;;3.26;87.26;100733.09;5002106;28;20034;-83
2021/01/05 09:20:23;;;;;;;38.22;19.10;;;2.50;99.90;;;3.23;86.96;100734.53;5001788;28;20030;-83
2021/01/05 09:22:54;;;;;;;34.40;17.20;;;2.50;99.90;;;3.04;86.98;100742.09;5002485;28;20061;-84
2021/01/05 09:25:21;;;;;;;38.13;18.92;;;2.50;99.90;;;3.17;86.94;100738.53;5000234;28;20398;-84
2021/01/05 09:28:15;;;;;;;40.03;19.50;;;2.50;99.90;;;3.14;87.13;100741.91;5002529;28;20233;-84
2021/01/05 09:30:42;;;;;;;41.90;20.00;;;2.50;99.90;;;3.16;87.10;100732.19;5001027;28;20026;-85
2021/01/05 09:33:08;;;;;;;42.50;20.33;;;2.50;99.90;;;3.17;87.08;100742.09;5000949;28;20029;-84
2021/01/05 09:35:34;;;;;;;40.83;19.15;;;2.40;99.90;;;3.06;87.67;100737.06;5005548;28;20069;-85
2021/01/05 09:38:00;;;;;;;39.30;19.58;;;2.40;99.90;;;3.02;87.98;100736.03;5015070;28;20061;-85
2021/01/05 09:40:26;;;;;;;43.50;20.10;;;2.40;99.90;;;3.11;87.96;100739.75;5012019;28;20041;-85
2021/01/05 09:42:52;;;;;;;43.20;19.25;;;2.50;99.90;;;3.13;87.64;100743.00;5012951;28;20102;-84
2021/01/05 09:45:18;;;;;;;46.33;19.85;;;2.40;99.90;;;3.04;88.11;100744.84;5014814;28;20038;-85
2021/01/05 09:47:44;;;;;;;47.55;22.20;;;2.40;99.90;;;3.09;88.02;100744.75;5014047;28;20038;-83
2021/01/05 09:50:10;;;;;;;42.92;20.98;;;2.40;99.90;;;3.17;87.61;100741.28;5013693;28;20026;-82
2021/01/05 09:52:37;;;;;;;47.15;20.55;;;2.50;99.90;;;3.08;87.78;100746.69;5002561;28;20092;-86
2021/01/05 09:55:08;;;;;;;50.42;20.23;;;2.50;99.90;;;3.08;87.21;100735.63;5000602;28;20034;-85
2021/01/05 09:57:34;;;;;;;43.25;19.73;;;2.40;99.90;;;3.06;87.75;100732.38;5000674;28;20064;-83
2021/01/05 10:00:00;;;;;;;50.20;19.70;;;2.40;99.90;;;3.11;87.96;100737.00;4999796;28;20429;-85
2021/01/05 10:02:27;;;;;;;48.63;20.00;;;2.40;99.90;;;3.05;88.03;100732.69;5001777;28;20030;-82
2021/01/05 10:04:52;;;;;;;40.65;18.23;;;2.40;99.90;;;3.08;87.72;100723.81;5004361;28;20539;-84
2021/01/05 10:07:35;;;;;;;44.70;19.17;;;2.40;99.90;;;3.12;87.18;100733.09;5003272;28;20057;-84
2021/01/05 10:10:04;;;;;;;44.20;20.33;;;2.50;99.90;;;3.13;87.64;100734.72;4992690;28;20061;-84
2021/01/05 10:12:30;;;;;;;38.97;18.48;;;2.50;99.90;;;3.02;87.88;100736.88;5031086;28;20043;-85
2021/01/05 10:14:55;;;;;;;42.35;18.77;;;2.50;99.90;;;3.12;87.36;100736.66;5000622;28;20379;-85
2021/01/05 10:17:21;;;;;;;46.85;20.27;;;2.50;99.90;;;3.20;87.16;100735.16;4996633;28;20026;-84
2021/01/05 10:19:47;;;;;;;37.95;18.55;;;2.50;99.90;;;3.03;87.56;100737.69;4995841;28;20389;-86
2021/01/05 10:22:13;;;;;;;38.35;18.15;;;2.50;99.90;;;3.21;86.77;100735.97;4996518;28;20033;-87
2021/01/05 10:24:39;;;;;;;39.33;17.95;;;2.50;99.90;;;3.17;87.07;100747.63;4998184;28;20037;-86
2021/01/05 10:27:05;;;;;;;37.47;18.75;;;2.50;99.90;;;3.26;86.79;100738.63;4999512;28;20050;-86
2021/01/05 10:29:31;;;;;;;38.70;19.33;;;2.50;99.90;;;3.27;86.84;100731.97;4998730;28;20534;-84
2021/01/05 10:31:57;;;;;;;36.78;18.00;;;2.50;99.90;;;3.19;86.88;100726.03;5000156;28;20058;-86
2021/01/05 10:34:25;;;;;;;39.92;18.98;;;2.60;99.90;;;3.21;87.26;100733.22;4997469;28;20038;-85
2021/01/05 10:36:58;;;;;;;42.63;19.30;;;2.60;99.90;;;3.29;86.98;100729.72;4995482;28;20038;-85
2021/01/05 10:39:30;;;;;;;40.38;18.85;;;2.60;99.90;;;3.22;86.74;100721.84;4995668;28;20038;-86
2021/01/05 10:41:56;;;;;;;42.70;19.98;;;2.60;99.90;;;3.12;87.06;100727.56;4995966;28;20030;-85
2021/01/05 10:44:28;;;;;;;41.45;19.00;;;2.60;99.90;;;3.25;86.80;100731.44;4995463;28;20482;-88
2021/01/05 10:47:00;;;;;;;39.67;17.95;;;2.60;99.90;;;3.22;87.09;100729.31;4994760;28;20449;-85
2021/01/05 10:49:26;;;;;;;36.75;18.85;;;2.60;99.90;;;3.02;87.20;100730.53;4995104;28;20034;-85
2021/01/05 10:51:57;;;;;;;37.85;16.98;;;2.60;99.90;;;3.06;87.22;100731.56;4996748;28;20339;-84